sensor_id;sensor_type;location;lat;lon;timestamp;pressure;altitude;pressure_sealevel;temperature;humidity
71239;BME280;61342;51.442;7.370;2022-10-26T00:00:23;99968.78;;;12.97;80.91
71239;BME280;61342;51.442;7.370;2022-10-26T00:01:23;99966.97;;;12.94;80.85
71239;BME280;61342;51.442;7.370;2022-10-26T00:02:24;99971.22;;;12.93;81.07
71239;BME280;61342;51.442;7.370;2022-10-26T00:03:24;99966.53;;;12.90;80.99
71239;BME280;61342;51.442;7.370;2022-10-26T00:04:24;99973.63;;;12.89;80.85
71239;BME280;61342;51.442;7.370;2022-10-26T00:05:25;99963.19;;;12.86;81.19
71239;BME280;61342;51.442;7.370;2022-10-26T00:06:25;99968.47;;;12.82;81.49
71239;BME280;61342;51.442;7.370;2022-10-26T00:07:29;99962.50;;;12.80;80.92
71239;BME280;61342;51.442;7.370;2022-10-26T00:08:29;99959.16;;;12.76;81.30
71239;BME280;61342;51.442;7.370;2022-10-26T00:09:29;99966.72;;;12.79;81.04
71239;BME280;61342;51.442;7.370;2022-10-26T00:10:30;99962.25;;;12.78;81.32
71239;BME280;61342;51.442;7.370;2022-10-26T00:11:30;99959.16;;;12.76;81.48
71239;BME280;61342;51.442;7.370;2022-10-26T00:12:30;99957.38;;;12.73;81.35
71239;BME280;61342;51.442;7.370;2022-10-26T00:13:31;99951.59;;;12.73;81.43
71239;BME280;61342;51.442;7.370;2022-10-26T00:14:32;99957.38;;;12.73;81.63
71239;BME280;61342;51.442;7.370;2022-10-26T00:15:33;99958.72;;;12.72;81.71
71239;BME280;61342;51.442;7.370;2022-10-26T00:16:33;99945.94;;;12.68;81.81
71239;BME280;61342;51.442;7.370;2022-10-26T00:17:33;99945.63;;;12.71;81.62
71239;BME280;61342;51.442;7.370;2022-10-26T00:18:34;99951.59;;;12.73;82.25
71239;BME280;61342;51.442;7.370;2022-10-26T00:19:34;99949.16;;;12.77;82.00
71239;BME280;61342;51.442;7.370;2022-10-26T00:20:37;99948.28;;;12.82;82.40
71239;BME280;61342;51.442;7.370;2022-10-26T00:21:37;99947.88;;;12.91;82.67
71239;BME280;61342;51.442;7.370;2022-10-26T00:22:37;99944.88;;;12.97;82.30
71239;BME280;61342;51.442;7.370;2022-10-26T00:23:38;99951.00;;;13.06;81.61
71239;BME280;61342;51.442;7.370;2022-10-26T00:24:38;99946.66;;;13.13;81.63
71239;BME280;61342;51.442;7.370;2022-10-26T00:25:39;99947.91;;;13.17;81.39
71239;BME280;61342;51.442;7.370;2022-10-26T00:26:39;99943.56;;;13.24;81.25
71239;BME280;61342;51.442;7.370;2022-10-26T00:27:39;99939.56;;;13.26;80.96
71239;BME280;61342;51.442;7.370;2022-10-26T00:28:40;99942.09;;;13.30;80.74
71239;BME280;61342;51.442;7.370;2022-10-26T00:29:40;99946.56;;;13.31;80.72
71239;BME280;61342;51.442;7.370;2022-10-26T00:30:41;99948.13;;;13.32;80.46
71239;BME280;61342;51.442;7.370;2022-10-26T00:31:41;99942.34;;;13.32;80.56
71239;BME280;61342;51.442;7.370;2022-10-26T00:32:41;99937.88;;;13.31;80.48
71239;BME280;61342;51.442;7.370;2022-10-26T00:33:42;99941.91;;;13.28;80.42
71239;BME280;61342;51.442;7.370;2022-10-26T00:34:42;99945.56;;;13.28;80.30
71239;BME280;61342;51.442;7.370;2022-10-26T00:35:46;99942.78;;;13.23;80.91
71239;BME280;61342;51.442;7.370;2022-10-26T00:36:46;99945.91;;;13.25;80.56
71239;BME280;61342;51.442;7.370;2022-10-26T00:37:47;99944.09;;;13.22;80.32
71239;BME280;61342;51.442;7.370;2022-10-26T00:38:53;99943.47;;;13.16;80.53
71239;BME280;61342;51.442;7.370;2022-10-26T00:39:54;99950.22;;;13.19;80.63
71239;BME280;61342;51.442;7.370;2022-10-26T00:40:54;99947.09;;;13.17;80.60
71239;BME280;61342;51.442;7.370;2022-10-26T00:41:55;99944.56;;;13.13;80.76
71239;BME280;61342;51.442;7.370;2022-10-26T00:42:55;99942.47;;;13.14;80.83
71239;BME280;61342;51.442;7.370;2022-10-26T00:43:56;99950.13;;;13.11;81.07
71239;BME280;61342;51.442;7.370;2022-10-26T00:46:27;99946.00;;;13.07;81.03
71239;BME280;61342;51.442;7.370;2022-10-26T00:47:44;99945.00;;;13.04;81.47
71239;BME280;61342;51.442;7.370;2022-10-26T00:48:53;99942.91;;;13.05;81.16
71239;BME280;61342;51.442;7.370;2022-10-26T00:49:56;99939.00;;;13.02;81.47
71239;BME280;61342;51.442;7.370;2022-10-26T00:51:02;99952.09;;;13.03;81.59
71239;BME280;61342;51.442;7.370;2022-10-26T00:52:06;99947.47;;;13.00;81.42
71239;BME280;61342;51.442;7.370;2022-10-26T00:53:07;99944.56;;;13.00;81.57
71239;BME280;61342;51.442;7.370;2022-10-26T00:54:12;99948.78;;;12.99;82.00
71239;BME280;61342;51.442;7.370;2022-10-26T00:55:16;99953.00;;;12.98;81.84
71239;BME280;61342;51.442;7.370;2022-10-26T00:56:20;99942.56;;;12.95;82.02
71239;BME280;61342;51.442;7.370;2022-10-26T00:57:21;99948.34;;;12.95;81.80
71239;BME280;61342;51.442;7.370;2022-10-26T00:58:21;99946.22;;;12.96;81.92
71239;BME280;61342;51.442;7.370;2022-10-26T00:59:23;99956.44;;;12.97;82.02
71239;BME280;61342;51.442;7.370;2022-10-26T01:00:23;99941.25;;;12.96;82.24
71239;BME280;61342;51.442;7.370;2022-10-26T01:01:23;99949.91;;;12.96;82.10
71239;BME280;61342;51.442;7.370;2022-10-26T01:02:24;99949.09;;;12.96;82.17
71239;BME280;61342;51.442;7.370;2022-10-26T01:03:25;99949.91;;;12.96;82.39
71239;BME280;61342;51.442;7.370;2022-10-26T01:04:27;99949.44;;;12.92;82.33
71239;BME280;61342;51.442;7.370;2022-10-26T01:05:28;99946.00;;;12.94;82.42
71239;BME280;61342;51.442;7.370;2022-10-26T01:06:30;99951.97;;;12.96;82.36
71239;BME280;61342;51.442;7.370;2022-10-26T01:07:31;99943.88;;;12.94;82.50
71239;BME280;61342;51.442;7.370;2022-10-26T01:08:33;99952.78;;;12.96;82.59
71239;BME280;61342;51.442;7.370;2022-10-26T01:09:34;99942.56;;;12.95;82.47
71239;BME280;61342;51.442;7.370;2022-10-26T01:10:37;99941.00;;;12.94;83.03
71239;BME280;61342;51.442;7.370;2022-10-26T01:11:38;99935.22;;;12.94;82.86
71239;BME280;61342;51.442;7.370;2022-10-26T01:12:38;99941.81;;;12.95;82.90
71239;BME280;61342;51.442;7.370;2022-10-26T01:13:41;99941.00;;;12.94;82.73
71239;BME280;61342;51.442;7.370;2022-10-26T01:14:43;99939.47;;;12.93;82.93
71239;BME280;61342;51.442;7.370;2022-10-26T01:16:14;99929.56;;;12.89;82.91
71239;BME280;61342;51.442;7.370;2022-10-26T01:17:36;99935.91;;;12.87;83.10
71239;BME280;61342;51.442;7.370;2022-10-26T01:18:57;99924.38;;;12.87;83.02
71239;BME280;61342;51.442;7.370;2022-10-26T01:20:33;99920.75;;;12.81;83.12
71239;BME280;61342;51.442;7.370;2022-10-26T01:26:04;99929.81;;;12.91;83.51
71239;BME280;61342;51.442;7.370;2022-10-26T01:27:24;99912.38;;;12.96;83.79
71239;BME280;61342;51.442;7.370;2022-10-26T01:29:13;99920.50;;;13.11;83.21
71239;BME280;61342;51.442;7.370;2022-10-26T01:31:10;99919.25;;;13.32;83.16
71239;BME280;61342;51.442;7.370;2022-10-26T01:34:03;99912.56;;;13.50;82.86
71239;BME280;61342;51.442;7.370;2022-10-26T01:35:09;99916.09;;;13.56;82.37
71239;BME280;61342;51.442;7.370;2022-10-26T01:36:24;99915.53;;;13.57;82.07
71239;BME280;61342;51.442;7.370;2022-10-26T01:37:30;99917.31;;;13.60;81.89
71239;BME280;61342;51.442;7.370;2022-10-26T01:39:00;99915.97;;;13.61;81.94
71239;BME280;61342;51.442;7.370;2022-10-26T01:40:33;99907.66;;;13.58;82.05
71239;BME280;61342;51.442;7.370;2022-10-26T01:41:39;99908.84;;;13.62;81.85
71239;BME280;61342;51.442;7.370;2022-10-26T01:42:47;99912.50;;;13.63;81.53
71239;BME280;61342;51.442;7.370;2022-10-26T01:43:57;99908.66;;;13.60;81.78
71239;BME280;61342;51.442;7.370;2022-10-26T01:45:04;99910.75;;;13.60;81.89
71239;BME280;61342;51.442;7.370;2022-10-26T01:46:07;99895.66;;;13.54;81.86
71239;BME280;61342;51.442;7.370;2022-10-26T01:47:10;99908.41;;;13.58;81.78
71239;BME280;61342;51.442;7.370;2022-10-26T01:48:14;99909.19;;;13.59;81.90
71239;BME280;61342;51.442;7.370;2022-10-26T01:49:22;99902.44;;;13.56;82.03
71239;BME280;61342;51.442;7.370;2022-10-26T01:50:25;99901.66;;;13.56;82.30
71239;BME280;61342;51.442;7.370;2022-10-26T01:51:27;99906.09;;;13.57;82.33
71239;BME280;61342;51.442;7.370;2022-10-26T01:52:29;99903.22;;;13.57;82.00
71239;BME280;61342;51.442;7.370;2022-10-26T01:53:29;99907.41;;;13.56;82.07
71239;BME280;61342;51.442;7.370;2022-10-26T01:54:30;99902.78;;;13.53;82.09
71239;BME280;61342;51.442;7.370;2022-10-26T01:55:42;99901.97;;;13.52;82.02
71239;BME280;61342;51.442;7.370;2022-10-26T01:56:49;99911.44;;;13.53;82.50
71239;BME280;61342;51.442;7.370;2022-10-26T01:57:51;99905.09;;;13.54;82.54
71239;BME280;61342;51.442;7.370;2022-10-26T02:06:05;99891.22;;;13.53;82.77
71239;BME280;61342;51.442;7.370;2022-10-26T02:08:35;99882.56;;;13.53;83.07
71239;BME280;61342;51.442;7.370;2022-10-26T02:12:42;99883.69;;;13.50;82.86
71239;BME280;61342;51.442;7.370;2022-10-26T02:14:07;99884.13;;;13.54;82.60
71239;BME280;61342;51.442;7.370;2022-10-26T02:15:16;99878.34;;;13.54;82.70
71239;BME280;61342;51.442;7.370;2022-10-26T02:16:48;99879.00;;;13.47;82.86
71239;BME280;61342;51.442;7.370;2022-10-26T02:17:58;99877.78;;;13.55;82.82
71239;BME280;61342;51.442;7.370;2022-10-26T02:19:04;99883.00;;;13.57;82.51
71239;BME280;61342;51.442;7.370;2022-10-26T02:20:08;99877.66;;;13.61;83.11
71239;BME280;61342;51.442;7.370;2022-10-26T02:21:14;99879.97;;;13.62;83.10
71239;BME280;61342;51.442;7.370;2022-10-26T02:22:18;99879.06;;;13.67;83.28
71239;BME280;61342;51.442;7.370;2022-10-26T02:23:20;99884.72;;;13.73;83.28
71239;BME280;61342;51.442;7.370;2022-10-26T02:24:23;99878.25;;;13.80;83.48
71239;BME280;61342;51.442;7.370;2022-10-26T02:25:30;99873.31;;;13.87;83.58
71239;BME280;61342;51.442;7.370;2022-10-26T02:26:31;99877.72;;;14.01;83.52
71239;BME280;61342;51.442;7.370;2022-10-26T02:27:36;99866.81;;;14.07;83.18
71239;BME280;61342;51.442;7.370;2022-10-26T02:28:47;99874.31;;;14.23;82.76
71239;BME280;61342;51.442;7.370;2022-10-26T02:29:49;99869.56;;;14.33;82.44
71239;BME280;61342;51.442;7.370;2022-10-26T02:30:53;99867.31;;;14.39;82.16
71239;BME280;61342;51.442;7.370;2022-10-26T02:31:55;99859.47;;;14.47;82.25
71239;BME280;61342;51.442;7.370;2022-10-26T02:32:57;99868.19;;;14.54;82.02
71239;BME280;61342;51.442;7.370;2022-10-26T02:34:01;99856.03;;;14.56;81.61
71239;BME280;61342;51.442;7.370;2022-10-26T02:35:04;99859.56;;;14.62;81.01
71239;BME280;61342;51.442;7.370;2022-10-26T02:36:08;99857.84;;;14.66;81.55
71239;BME280;61342;51.442;7.370;2022-10-26T02:37:11;99855.75;;;14.67;80.83
71239;BME280;61342;51.442;7.370;2022-10-26T02:38:13;99840.50;;;14.66;81.04
71239;BME280;61342;51.442;7.370;2022-10-26T02:39:18;99855.03;;;14.74;80.89
71239;BME280;61342;51.442;7.370;2022-10-26T02:40:24;99848.47;;;14.73;80.54
71239;BME280;61342;51.442;7.370;2022-10-26T02:41:25;99847.34;;;14.76;80.74
71239;BME280;61342;51.442;7.370;2022-10-26T02:42:27;99846.75;;;14.78;80.38
71239;BME280;61342;51.442;7.370;2022-10-26T02:43:28;99846.97;;;14.80;80.53
71239;BME280;61342;51.442;7.370;2022-10-26T02:44:35;99846.97;;;14.80;80.61
71239;BME280;61342;51.442;7.370;2022-10-26T02:45:42;99850.06;;;14.82;80.46
71239;BME280;61342;51.442;7.370;2022-10-26T02:46:44;99835.41;;;14.80;80.26
71239;BME280;61342;51.442;7.370;2022-10-26T02:47:45;99843.13;;;14.85;80.38
71239;BME280;61342;51.442;7.370;2022-10-26T02:48:45;99851.81;;;14.85;80.64
71239;BME280;61342;51.442;7.370;2022-10-26T02:49:46;99843.34;;;14.87;80.24
71239;BME280;61342;51.442;7.370;2022-10-26T02:50:58;99841.03;;;14.85;80.40
71239;BME280;61342;51.442;7.370;2022-10-26T02:52:17;99845.25;;;14.84;80.35
71239;BME280;61342;51.442;7.370;2022-10-26T02:53:26;99846.44;;;14.89;80.09
71239;BME280;61342;51.442;7.370;2022-10-26T02:54:35;99846.44;;;14.89;80.16
71239;BME280;61342;51.442;7.370;2022-10-26T02:55:48;99842.00;;;14.88;80.05
71239;BME280;61342;51.442;7.370;2022-10-26T02:56:59;99849.56;;;14.91;80.56
71239;BME280;61342;51.442;7.370;2022-10-26T02:58:03;99836.63;;;14.92;80.37
71239;BME280;61342;51.442;7.370;2022-10-26T02:59:08;99846.06;;;14.92;79.88
71239;BME280;61342;51.442;7.370;2022-10-26T03:00:13;99834.16;;;14.96;80.18
71239;BME280;61342;51.442;7.370;2022-10-26T03:01:14;99839.16;;;14.95;80.19
71239;BME280;61342;51.442;7.370;2022-10-26T03:02:16;99842.25;;;14.97;79.91
71239;BME280;61342;51.442;7.370;2022-10-26T03:03:18;99830.88;;;14.99;79.69
71239;BME280;61342;51.442;7.370;2022-10-26T03:04:19;99836.09;;;15.00;79.80
71239;BME280;61342;51.442;7.370;2022-10-26T03:05:22;99833.41;;;15.02;79.98
71239;BME280;61342;51.442;7.370;2022-10-26T03:06:24;99834.38;;;15.05;79.91
71239;BME280;61342;51.442;7.370;2022-10-26T03:07:25;99834.56;;;15.07;79.89
71239;BME280;61342;51.442;7.370;2022-10-26T03:08:25;99836.13;;;15.08;79.49
71239;BME280;61342;51.442;7.370;2022-10-26T03:09:26;99835.56;;;15.09;79.48
71239;BME280;61342;51.442;7.370;2022-10-26T03:10:27;99829.97;;;15.11;79.51
71239;BME280;61342;51.442;7.370;2022-10-26T03:11:27;99837.53;;;15.14;79.63
71239;BME280;61342;51.442;7.370;2022-10-26T03:12:28;99840.41;;;15.14;79.45
71239;BME280;61342;51.442;7.370;2022-10-26T03:13:28;99831.94;;;15.16;79.25
71239;BME280;61342;51.442;7.370;2022-10-26T03:14:28;99830.56;;;15.17;79.46
71239;BME280;61342;51.442;7.370;2022-10-26T03:15:29;99835.78;;;15.19;79.36
71239;BME280;61342;51.442;7.370;2022-10-26T03:16:29;99831.00;;;15.21;79.17
71239;BME280;61342;51.442;7.370;2022-10-26T03:17:29;99830.06;;;15.26;79.14
71239;BME280;61342;51.442;7.370;2022-10-26T03:18:30;99830.28;;;15.28;79.43
71239;BME280;61342;51.442;7.370;2022-10-26T03:19:30;99832.84;;;15.39;79.19
71239;BME280;61342;51.442;7.370;2022-10-26T03:20:30;99834.41;;;15.48;78.75
71239;BME280;61342;51.442;7.370;2022-10-26T03:21:31;99833.28;;;15.58;78.90
71239;BME280;61342;51.442;7.370;2022-10-26T03:22:31;99830.63;;;15.67;78.65
71239;BME280;61342;51.442;7.370;2022-10-26T03:23:31;99832.19;;;15.76;78.07
71239;BME280;61342;51.442;7.370;2022-10-26T03:24:32;99835.66;;;15.82;77.97
71239;BME280;61342;51.442;7.370;2022-10-26T03:25:32;99826.00;;;15.87;77.51
71239;BME280;61342;51.442;7.370;2022-10-26T03:26:32;99835.50;;;15.95;77.21
71239;BME280;61342;51.442;7.370;2022-10-26T03:27:33;99827.19;;;15.99;77.06
71239;BME280;61342;51.442;7.370;2022-10-26T03:28:34;99818.69;;;16.01;76.79
71239;BME280;61342;51.442;7.370;2022-10-26T03:29:34;99825.47;;;16.03;76.79
71239;BME280;61342;51.442;7.370;2022-10-26T03:30:35;99826.06;;;16.02;76.47
71239;BME280;61342;51.442;7.370;2022-10-26T03:31:35;99822.56;;;16.03;76.09
71239;BME280;61342;51.442;7.370;2022-10-26T03:32:35;99829.13;;;16.04;76.13
71239;BME280;61342;51.442;7.370;2022-10-26T03:33:36;99825.47;;;16.03;75.91
71239;BME280;61342;51.442;7.370;2022-10-26T03:34:37;99820.25;;;16.02;75.97
71239;BME280;61342;51.442;7.370;2022-10-26T03:35:37;99822.56;;;16.03;75.99
71239;BME280;61342;51.442;7.370;2022-10-26T03:36:37;99829.72;;;16.02;76.01
71239;BME280;61342;51.442;7.370;2022-10-26T03:37:38;99827.41;;;16.01;75.54
71239;BME280;61342;51.442;7.370;2022-10-26T03:38:38;99820.41;;;15.96;75.49
71239;BME280;61342;51.442;7.370;2022-10-26T03:39:38;99829.50;;;16.00;75.79
71239;BME280;61342;51.442;7.370;2022-10-26T03:40:39;99827.19;;;15.99;75.78
71239;BME280;61342;51.442;7.370;2022-10-26T03:41:40;99817.53;;;15.96;75.78
71239;BME280;61342;51.442;7.370;2022-10-26T03:42:40;99820.41;;;15.96;75.41
71239;BME280;61342;51.442;7.370;2022-10-26T03:43:40;99822.56;;;15.96;75.87
71239;BME280;61342;51.442;7.370;2022-10-26T03:44:41;99826.03;;;15.94;75.85
71239;BME280;61342;51.442;7.370;2022-10-26T03:45:41;99822.56;;;15.96;75.77
71239;BME280;61342;51.442;7.370;2022-10-26T03:46:42;99814.03;;;15.90;75.87
71239;BME280;61342;51.442;7.370;2022-10-26T03:47:44;99828.72;;;15.92;75.91
71239;BME280;61342;51.442;7.370;2022-10-26T03:48:44;99817.91;;;15.93;75.75
71239;BME280;61342;51.442;7.370;2022-10-26T03:49:45;99821.41;;;15.91;75.71
71239;BME280;61342;51.442;7.370;2022-10-26T03:50:45;99820.81;;;15.93;75.69
71239;BME280;61342;51.442;7.370;2022-10-26T03:51:45;99828.72;;;15.92;75.92
71239;BME280;61342;51.442;7.370;2022-10-26T03:52:46;99825.06;;;15.92;76.01
71239;BME280;61342;51.442;7.370;2022-10-26T03:53:47;99815.59;;;15.91;76.00
71239;BME280;61342;51.442;7.370;2022-10-26T03:54:47;99820.59;;;15.91;75.50
71239;BME280;61342;51.442;7.370;2022-10-26T03:55:47;99813.28;;;15.90;75.89
71239;BME280;61342;51.442;7.370;2022-10-26T03:56:48;99818.50;;;15.91;75.67
71239;BME280;61342;51.442;7.370;2022-10-26T03:57:48;99812.50;;;15.89;75.59
71239;BME280;61342;51.442;7.370;2022-10-26T03:58:48;99816.19;;;15.90;75.58
71239;BME280;61342;51.442;7.370;2022-10-26T03:59:49;99823.50;;;15.91;75.65
71239;BME280;61342;51.442;7.370;2022-10-26T04:00:49;99811.31;;;15.92;75.68
71239;BME280;61342;51.442;7.370;2022-10-26T04:01:50;99821.56;;;15.93;76.05
71239;BME280;61342;51.442;7.370;2022-10-26T04:02:58;99821.38;;;15.99;76.07
71239;BME280;61342;51.442;7.370;2022-10-26T04:03:58;99806.31;;;16.00;75.90
71239;BME280;61342;51.442;7.370;2022-10-26T04:04:59;99819.66;;;16.11;75.71
71239;BME280;61342;51.442;7.370;2022-10-26T04:06:00;99820.44;;;16.18;75.62
71239;BME280;61342;51.442;7.370;2022-10-26T04:07:01;99812.53;;;16.26;75.29
71239;BME280;61342;51.442;7.370;2022-10-26T04:08:01;99815.28;;;16.32;74.89
71239;BME280;61342;51.442;7.370;2022-10-26T04:09:04;99816.41;;;16.36;74.65
71239;BME280;61342;51.442;7.370;2022-10-26T04:10:07;99810.25;;;16.40;74.66
71239;BME280;61342;51.442;7.370;2022-10-26T04:11:08;99812.94;;;16.45;74.12
71239;BME280;61342;51.442;7.370;2022-10-26T04:12:08;99821.81;;;16.47;73.91
71239;BME280;61342;51.442;7.370;2022-10-26T04:13:09;99816.81;;;16.48;74.08
71239;BME280;61342;51.442;7.370;2022-10-26T04:14:10;99823.38;;;16.48;73.70
71239;BME280;61342;51.442;7.370;2022-10-26T04:15:10;99810.22;;;16.47;73.72
71239;BME280;61342;51.442;7.370;2022-10-26T04:16:11;99819.13;;;16.49;73.84
71239;BME280;61342;51.442;7.370;2022-10-26T04:17:11;99809.06;;;16.43;73.38
71239;BME280;61342;51.442;7.370;2022-10-26T04:18:11;99810.63;;;16.44;73.69
71239;BME280;61342;51.442;7.370;2022-10-26T04:19:12;99823.19;;;16.46;73.72
71239;BME280;61342;51.442;7.370;2022-10-26T04:20:12;99810.63;;;16.44;73.89
71239;BME280;61342;51.442;7.370;2022-10-26T04:21:12;99817.78;;;16.43;73.64
71239;BME280;61342;51.442;7.370;2022-10-26T04:22:13;99814.50;;;16.39;73.40
71239;BME280;61342;51.442;7.370;2022-10-26T04:23:15;99813.72;;;16.38;73.73
71239;BME280;61342;51.442;7.370;2022-10-26T04:24:16;99814.50;;;16.39;73.70
71239;BME280;61342;51.442;7.370;2022-10-26T04:25:16;99819.53;;;16.38;73.52
71239;BME280;61342;51.442;7.370;2022-10-26T04:26:16;99815.66;;;16.36;73.81
71239;BME280;61342;51.442;7.370;2022-10-26T04:27:17;99813.34;;;16.34;73.55
71239;BME280;61342;51.442;7.370;2022-10-26T04:28:17;99822.03;;;16.34;73.53
71239;BME280;61342;51.442;7.370;2022-10-26T04:29:18;99822.59;;;16.33;73.83
71239;BME280;61342;51.442;7.370;2022-10-26T04:30:18;99826.28;;;16.33;73.75
71239;BME280;61342;51.442;7.370;2022-10-26T04:31:19;99815.06;;;16.30;73.64
71239;BME280;61342;51.442;7.370;2022-10-26T04:32:19;99821.44;;;16.28;73.83
71239;BME280;61342;51.442;7.370;2022-10-26T04:33:19;99821.25;;;16.26;73.77
71239;BME280;61342;51.442;7.370;2022-10-26T04:34:20;99823.59;;;16.28;74.04
71239;BME280;61342;51.442;7.370;2022-10-26T04:35:20;99832.84;;;16.26;73.74
71239;BME280;61342;51.442;7.370;2022-10-26T04:36:20;99829.19;;;16.26;73.70
71239;BME280;61342;51.442;7.370;2022-10-26T04:37:21;99831.31;;;16.25;73.98
71239;BME280;61342;51.442;7.370;2022-10-26T04:38:21;99834.22;;;16.25;73.96
71239;BME280;61342;51.442;7.370;2022-10-26T04:39:21;99836.88;;;16.23;73.97
71239;BME280;61342;51.442;7.370;2022-10-26T04:40:21;99830.91;;;16.21;74.00
71239;BME280;61342;51.442;7.370;2022-10-26T04:41:22;99833.22;;;16.23;74.08
71239;BME280;61342;51.442;7.370;2022-10-26T04:42:22;99828.00;;;16.21;73.87
71239;BME280;61342;51.442;7.370;2022-10-26T04:43:22;99833.44;;;16.25;74.08
71239;BME280;61342;51.442;7.370;2022-10-26T04:44:23;99825.69;;;16.27;74.20
71239;BME280;61342;51.442;7.370;2022-10-26T04:45:23;99828.00;;;16.29;73.73
71239;BME280;61342;51.442;7.370;2022-10-26T04:46:24;99828.03;;;16.36;73.85
71239;BME280;61342;51.442;7.370;2022-10-26T04:47:24;99828.81;;;16.44;73.80
71239;BME280;61342;51.442;7.370;2022-10-26T04:48:24;99823.38;;;16.48;73.38
71239;BME280;61342;51.442;7.370;2022-10-26T04:49:25;99832.84;;;16.56;73.08
71239;BME280;61342;51.442;7.370;2022-10-26T04:50:25;99831.88;;;16.61;73.01
71239;BME280;61342;51.442;7.370;2022-10-26T04:51:26;99829.38;;;16.65;72.91
71239;BME280;61342;51.442;7.370;2022-10-26T04:52:27;99830.34;;;16.68;72.71
71239;BME280;61342;51.442;7.370;2022-10-26T04:53:27;99826.25;;;16.71;72.53
71239;BME280;61342;51.442;7.370;2022-10-26T04:54:27;99833.22;;;16.75;72.13
71239;BME280;61342;51.442;7.370;2022-10-26T04:55:28;99827.22;;;16.73;72.46
71239;BME280;61342;51.442;7.370;2022-10-26T04:56:28;99830.34;;;16.75;72.02
71239;BME280;61342;51.442;7.370;2022-10-26T04:57:29;99835.34;;;16.74;71.90
71239;BME280;61342;51.442;7.370;2022-10-26T04:58:29;99837.28;;;16.72;71.98
71239;BME280;61342;51.442;7.370;2022-10-26T04:59:30;99837.50;;;16.74;71.92
71239;BME280;61342;51.442;7.370;2022-10-26T05:00:31;99830.13;;;16.73;72.08
71239;BME280;61342;51.442;7.370;2022-10-26T05:01:32;99832.66;;;16.69;71.76
71239;BME280;61342;51.442;7.370;2022-10-26T05:02:32;99841.56;;;16.71;72.03
71239;BME280;61342;51.442;7.370;2022-10-26T05:03:32;99837.09;;;16.70;71.89
71239;BME280;61342;51.442;7.370;2022-10-26T05:04:33;99832.66;;;16.69;71.63
71239;BME280;61342;51.442;7.370;2022-10-26T05:05:34;99828.78;;;16.67;71.55
71239;BME280;61342;51.442;7.370;2022-10-26T05:06:35;99827.06;;;16.64;71.65
71239;BME280;61342;51.442;7.370;2022-10-26T05:07:36;99825.50;;;16.63;72.08
71239;BME280;61342;51.442;7.370;2022-10-26T05:08:36;99829.75;;;16.62;71.63
71239;BME280;61342;51.442;7.370;2022-10-26T05:09:36;99819.13;;;16.57;72.25
71239;BME280;61342;51.442;7.370;2022-10-26T05:10:37;99826.47;;;16.58;71.72
71239;BME280;61342;51.442;7.370;2022-10-26T05:11:37;99819.13;;;16.57;71.73
71239;BME280;61342;51.442;7.370;2022-10-26T05:12:37;99818.34;;;16.56;71.81
71239;BME280;61342;51.442;7.370;2022-10-26T05:13:37;99823.97;;;16.54;71.91
71239;BME280;61342;51.442;7.370;2022-10-26T05:14:38;99823.75;;;16.52;72.11
71239;BME280;61342;51.442;7.370;2022-10-26T05:15:38;99817.97;;;16.52;71.56
71239;BME280;61342;51.442;7.370;2022-10-26T05:16:38;99823.00;;;16.52;71.87
71239;BME280;61342;51.442;7.370;2022-10-26T05:17:39;99824.94;;;16.49;71.54
71239;BME280;61342;51.442;7.370;2022-10-26T05:18:39;99824.94;;;16.49;71.70
71239;BME280;61342;51.442;7.370;2022-10-26T05:19:40;99822.63;;;16.48;72.20
71239;BME280;61342;51.442;7.370;2022-10-26T05:20:40;99820.09;;;16.44;71.88
71239;BME280;61342;51.442;7.370;2022-10-26T05:21:40;99822.41;;;16.46;71.87
71239;BME280;61342;51.442;7.370;2022-10-26T05:22:40;99817.19;;;16.44;71.94
71239;BME280;61342;51.442;7.370;2022-10-26T05:23:41;99815.63;;;16.43;71.74
71239;BME280;61342;51.442;7.370;2022-10-26T05:24:41;99824.56;;;16.45;71.80
71239;BME280;61342;51.442;7.370;2022-10-26T05:25:41;99816.03;;;16.47;71.67
71239;BME280;61342;51.442;7.370;2022-10-26T05:26:42;99821.44;;;16.51;71.79
71239;BME280;61342;51.442;7.370;2022-10-26T05:27:43;99821.44;;;16.58;71.61
71239;BME280;61342;51.442;7.370;2022-10-26T05:28:43;99822.22;;;16.66;71.13
71239;BME280;61342;51.442;7.370;2022-10-26T05:29:44;99830.88;;;16.73;71.36
71239;BME280;61342;51.442;7.370;2022-10-26T05:30:45;99819.09;;;16.79;70.80
71239;BME280;61342;51.442;7.370;2022-10-26T05:31:46;99823.31;;;16.85;70.72
71239;BME280;61342;51.442;7.370;2022-10-26T05:32:52;99831.66;;;16.89;70.32
71239;BME280;61342;51.442;7.370;2022-10-26T05:33:53;99820.41;;;16.93;70.44
71239;BME280;61342;51.442;7.370;2022-10-26T05:34:53;99825.63;;;16.94;69.82
71239;BME280;61342;51.442;7.370;2022-10-26T05:35:53;99821.00;;;16.91;70.18
71239;BME280;61342;51.442;7.370;2022-10-26T05:36:54;99821.75;;;16.92;69.64
71239;BME280;61342;51.442;7.370;2022-10-26T05:37:55;99822.34;;;16.90;69.64
71239;BME280;61342;51.442;7.370;2022-10-26T05:38:57;99822.56;;;16.92;69.58
71239;BME280;61342;51.442;7.370;2022-10-26T05:39:57;99819.44;;;16.90;69.59
71239;BME280;61342;51.442;7.370;2022-10-26T05:40:57;99821.38;;;16.88;69.86
71239;BME280;61342;51.442;7.370;2022-10-26T05:41:58;99813.66;;;16.83;69.73
71239;BME280;61342;51.442;7.370;2022-10-26T05:42:59;99818.88;;;16.84;69.46
71239;BME280;61342;51.442;7.370;2022-10-26T05:44:00;99825.28;;;16.83;69.40
71239;BME280;61342;51.442;7.370;2022-10-26T05:45:01;99818.50;;;16.80;69.35
71239;BME280;61342;51.442;7.370;2022-10-26T05:46:01;99810.00;;;16.75;69.31
71239;BME280;61342;51.442;7.370;2022-10-26T05:47:01;99817.16;;;16.74;69.85
71239;BME280;61342;51.442;7.370;2022-10-26T05:48:02;99825.88;;;16.74;69.37
71239;BME280;61342;51.442;7.370;2022-10-26T05:49:02;99824.16;;;16.71;69.75
71239;BME280;61342;51.442;7.370;2022-10-26T05:50:03;99825.28;;;16.68;70.00
71239;BME280;61342;51.442;7.370;2022-10-26T05:51:03;99814.84;;;16.65;69.89
71239;BME280;61342;51.442;7.370;2022-10-26T05:52:04;99822.22;;;16.66;69.67